GCFVLEMG

Guest
Details From GCFV - Fuerteventura
To LEMG - Malaga
Flight Number -
Tags generated
Created
Modified
Stats Distance 699 nm / 1,295 km
Max Altitude 35,000 ft / 10,668 m
Waypoints 7
Social Downloads 1
Likes 0
Share VATSIM

Download

Looking for another format? Having issues loading an existing format? Contact us
Advertisement - Login to hide

Notes

Basic altitude profile: - Ascent Rate: 2500ft/min - Ascent Speed: 250kts - Cruise Altitude: 35000ft - Cruise Speed: 420kts - Descent Rate: 1500ft/min - Descent Speed: 250kts Options: - Use NATs: yes - Use PACOTS: yes - Use low airways: yes - Use high airways: yes

Route

GCFV KORAL UG5 ESS UN871 ADUBI LEMG

ID Type Via Altitude Latitude Longitude Leg Dist Tot Dist Heading (true) Name
O GCFV APT - 0 ft / 0 m 28.44788˚ -13.86489˚ - 0 nm - Fuerteventura
KORAL FIX - 35,000 ft / 10,668 m 29.73143˚ -12.57834˚ 102 nm 102 nm 41° / 42° -
SONSO FIX UG5 (AWY-HI) 35,000 ft / 10,668 m 30.01222˚ -12.10194˚ 29 nm 132 nm 56° / 56° -
ESS VOR UG5 (AWY-HI) 35,000 ft / 10,668 m 31.40124˚ -9.68696˚ 150 nm 282 nm 56° / 57° ESSAOUIRA VOR-DME
NIRAL FIX UN871 (AWY-HI) 35,000 ft / 10,668 m 33.19472˚ -8.36667˚ 126 nm 409 nm 32° / 32° -
ADUBI FIX UN871 (AWY-HI) 29,500 ft / 8,992 m 35.83333˚ -6.32389˚ 187 nm 597 nm 32° / 33° -
O LEMG APT - 0 ft / 0 m 36.67978˚ -4.49590˚ 102 nm 699 nm 60° / 61° Malaga

Altitude Profile

Advertisement - Login to hide

Weather


0- 5 10 15 20 25 30 35+ Temperature / ° C

Clouds and Precipitation
Forecast for 2018-05-26 00:00 UTC. Updated 2 hours ago

Ground ~20,000 ft ~40,000 ft Winds

GCFV

Details ICAO GCFV (FUE)
Name Fuerteventura
Region Canary Islands
Timezone Atlantic/Canary (UTC+1.0)
Stats Elevation 85 ft / 26 m (AMSL)
Location 28.447882° -13.864892°
Runways 2
Magnetic Variation 4.047° W

METAR

GCFV 260100Z 33005KT 9999 FEW042 17/13 Q1017

Decode

TAF

TAF GCFV 252000Z 2521/2621 35010KT 9999 SCT040 TX25/2614Z TN16/2605Z= TAF LEAM 252000Z 2521/2621 24017KT 9999 FEW030 TX26/2613Z TN16/2606Z BECMG 2521/2524 VRB03KT BECMG 2608/2610 23014KT BECMG 2616/2618 VRB03KT

Decode

Departure Runways

ID Width Length Bearing (true) Bearing (mag) Surface Threshold Offset Overrun Length
01L 148 ft / 45 m 5,433 ft / 1,656 m 1.67° 5.72° Asphalt 0 ft / 0 m 984 ft / 300 m
01R 148 ft / 45 m 7,905 ft / 2,409 m 1.66° 5.71° Asphalt 0 ft / 0 m 3,281 ft / 1,000 m
19L 148 ft / 45 m 7,905 ft / 2,409 m 181.66° 185.71° Asphalt 0 ft / 0 m 197 ft / 60 m
19R 148 ft / 45 m 5,433 ft / 1,656 m 181.67° 185.72° Asphalt 0 ft / 0 m 820 ft / 250 m

LEMG

Details ICAO LEMG (AGP)
Name Malaga
Region Spain
Timezone Europe/Madrid (UTC+2.0)
Stats Elevation 52 ft / 16 m (AMSL)
Location 36.679780° -4.495899°
Runways 2
Magnetic Variation 0.826° W

METAR

LEMG 260100Z 29008KT 9999 FEW050 18/11 Q1013 NOSIG

Decode

TAF

TAF LEMG 252300Z 2600/2624 29009KT 9999 SCT040 TX25/2612Z TN14/2605Z BECMG 2608/2611 13009KT BECMG 2619/2622 29008KT

Decode

Destination Runways

ID Width Length Bearing (true) Bearing (mag) Surface Threshold Offset Overrun Length
12 148 ft / 45 m 10,057 ft / 3,065 m 117.76° 118.59° Asphalt 0 ft / 0 m 650 ft / 198 m
13 148 ft / 45 m 10,509 ft / 3,203 m 131.69° 132.52° Asphalt 0 ft / 0 m 246 ft / 75 m
30 148 ft / 45 m 10,057 ft / 3,065 m 297.78° 298.61° Asphalt 1,115 ft / 340 m 466 ft / 142 m
31 148 ft / 45 m 10,509 ft / 3,203 m 311.70° 312.53° Asphalt 0 ft / 0 m 246 ft / 75 m

Approach Navaids

Runway Type Ident Frequency Range Bearing (true) Bearing (mag) Slope Elevation
12 Localiser IMG 110.55 MHz 15 nm / 28 km 117.70° 118.53° - 52 ft / 16 m (AMSL)
12 Glidescope IMG 110.55 MHz 8 nm / 15 km 0.00° 0.83° 3.00° 52 ft / 16 m (AMSL)
12 DME IMG 110.55 MHz 18 nm / 33 km - - - 52 ft / 16 m (AMSL)
13 Localiser GMM 109.50 MHz 18 nm / 33 km 131.70° 132.53° - 52 ft / 16 m (AMSL)
13 Glidescope GMM 109.50 MHz 10 nm / 19 km 131.69° 132.51° 3.20° 69 ft / 21 m (AMSL)
13 DME GMM 109.50 MHz 18 nm / 33 km - - - 69 ft / 21 m (AMSL)
31 Localiser GAA 109.90 MHz 18 nm / 33 km 311.68° 312.51° - 52 ft / 16 m (AMSL)
31 Glidescope GAA 109.90 MHz 10 nm / 19 km 311.69° 312.52° 3.00° 56 ft / 17 m (AMSL)
31 DME GAA 109.90 MHz 18 nm / 33 km - - - 56 ft / 17 m (AMSL)

Popular Alternatives